Latest Weather Observations for Viewbank

IDV60901

Issued at 10:41 am EST Thursday 23 September 2021 (issued every 10 minutes, with the page automatically refreshed every 10 minutes)

About weather observations | Map of Melbourne area stations | Latest observations for Melbourne area | Other Formats
Station Details ID: 086068 Name: VIEWBANK Lat: -37.74 Lon: 145.10 Height: 66.1 m
Data from the previous 72 hours. | See also: Recent months at Viewbank
Date/Time
EST
Temp
°C
App
Temp
°C
Dew
Point
°C
Rel
Hum
%
Delta-T
°C
Wind Press
QNH
hPa
Press
MSL
hPa
Rain since
9am
mm
Dir  Spd
km/h
Gust
km/h
Spd
kts
Gust
kts
23/10:30am 14.7 12.3 10.1 74 2.4 N 13 28 7 15 1019.2 1019.2 0.0
23/10:00am 13.7 10.2 10.3 80 1.8 N 19 32 10 17 1019.5 1019.5 0.0
23/09:30am 14.2 11.9 10.4 78 2.0 NNW 13 20 7 11 1019.7 1019.7 0.0
23/09:00am 13.2 10.9 10.4 83 1.5 NNW 13 20 7 11 1020.0 1020.0 0.0
23/08:30am 12.4 10.1 10.5 88 1.0 NW 13 24 7 13 1020.2 1020.2 0.0
23/08:00am 11.8 9.5 10.4 91 0.7 NNW 13 19 7 10 1020.0 1020.0 0.0
23/07:30am 11.3 9.1 10.7 96 0.3 NNW 13 17 7 9 1019.8 1019.8 0.0
23/07:00am 10.4 9.8 10.4 100 0.0 NNW 4 7 2 4 1019.5 1019.5 0.0
23/06:30am 10.0 8.7 10.0 100 0.0 NNW 7 17 4 9 1019.3 1019.3 0.0
23/06:00am 10.1 7.7 10.1 100 0.0 NNW 13 22 7 12 1019.4 1019.4 0.0
23/05:30am 10.2 7.5 10.2 100 0.0 NNW 15 30 8 16 1019.4 1019.4 0.0
23/05:00am 10.6 7.6 10.6 100 0.0 NNW 17 30 9 16 1019.4 1019.4 0.0
23/04:30am 10.8 8.6 10.8 100 0.0 N 13 20 7 11 1019.4 1019.4 0.0
23/04:00am 9.3 7.5 9.3 100 0.0 NNW 9 17 5 9 1019.4 1019.4 0.0
23/03:30am 9.2 7.0 9.2 100 0.0 NW 11 17 6 9 1019.9 1019.9 0.0
23/03:00am 8.2 6.6 8.2 100 0.0 NNW 6 9 3 5 1020.2 1020.2 0.0
23/02:30am 8.8 7.8 8.8 100 0.0 NE 4 9 2 5 1020.4 1020.4 0.0
23/02:00am 8.5 7.8 8.5 100 0.0 NE 2 6 1 3 1020.9 1020.9 0.0
23/01:30am 9.4 9.3 9.4 100 0.0 CALM 0 0 0 0 1021.2 1021.2 0.0
23/01:00am 11.1 9.7 10.9 99 0.1 N 9 15 5 8 1021.6 1021.6 0.0
23/12:30am 11.7 10.5 11.5 99 0.1 NNW 9 17 5 9 1022.0 1022.0 0.0
23/12:00am 10.0 9.3 10.0 100 0.0 SW 4 7 2 4 1022.3 1022.3 0.0
 
Date/Time
EST
Temp
°C
App
Temp
°C
Dew
Point
°C
Rel
Hum
%
Delta-T
°C
Wind Press
QNH
hPa
Press
MSL
hPa
Rain since
9am
mm
Dir  Spd
km/h
Gust
km/h
Spd
kts
Gust
kts
22/11:30pm 10.4 10.2 10.4 100 0.0 SSW 2 7 1 4 1022.5 1022.5 0.0
22/11:00pm 10.5 10.7 10.5 100 0.0 CALM 0 6 0 3 1022.9 1022.9 0.0
22/10:30pm 10.4 10.6 10.4 100 0.0 CALM 0 6 0 3 1022.9 1022.9 0.0
22/10:00pm 10.8 11.1 10.8 100 0.0 CALM 0 0 0 0 1023.3 1023.3 0.0
22/09:30pm 11.4 11.8 11.2 99 0.1 CALM 0 0 0 0 1023.4 1023.4 0.0
22/09:00pm 11.9 12.4 11.7 99 0.1 CALM 0 0 0 0 1023.4 1023.4 0.0
22/08:30pm 12.1 12.7 11.8 98 0.2 CALM 0 0 0 0 1023.5 1023.5 0.0
22/08:00pm 12.7 13.0 10.9 89 0.9 CALM 0 0 0 0 1023.8 1023.8 0.0
22/07:30pm 13.2 12.8 11.1 87 1.1 SSW 4 7 2 4 1023.6 1023.6 0.0
22/07:00pm 13.9 12.6 11.1 83 1.5 SSW 9 15 5 8 1023.4 1023.4 0.0
22/06:30pm 14.5 13.1 10.9 79 1.9 SSW 9 15 5 8 1023.4 1023.4 0.0
22/06:00pm 16.3 15.5 11.0 71 2.8 SSE 6 11 3 6 1023.0 1023.0 0.0
22/05:30pm 16.8 17.2 11.1 69 3.1 CALM 0 0 0 0 1022.8 1022.8 0.0
22/05:00pm 17.1 16.6 10.9 67 3.3 ESE 4 7 2 4 1022.7 1022.7 0.0
22/04:30pm 17.7 17.2 10.6 63 3.8 E 4 7 2 4 1022.7 1022.7 0.0
22/04:00pm 17.2 16.3 10.8 66 3.4 ESE 6 9 3 5 1023.0 1023.0 0.0
22/03:30pm 17.9 17.0 10.8 63 3.8 E 6 13 3 7 1023.1 1023.1 0.0
22/03:00pm 17.1 16.1 10.2 64 3.6 NE 6 11 3 6 1023.5 1023.5 0.0
22/02:30pm 16.7 15.8 11.2 70 3.0 NE 7 11 4 6 1023.7 1023.7 0.0
22/02:00pm 16.3 15.5 11.7 74 2.5 ENE 7 15 4 8 1024.1 1024.2 0.0
22/01:30pm 14.8 13.8 10.4 75 2.3 NE 6 11 3 6 1024.6 1024.7 0.0
22/01:00pm 14.4 13.1 9.8 74 2.4 N 7 13 4 7 1024.9 1025.0 0.0
22/12:30pm 13.9 12.8 10.5 80 1.8 NNW 7 13 4 7 1025.4 1025.5 0.0
22/12:00pm 13.4 12.4 10.4 82 1.6 NNW 6 9 3 5 1025.7 1025.8 0.0
22/11:30am 13.1 12.1 10.3 83 1.5 WNW 6 9 3 5 1026.2 1026.3 0.0
22/11:00am 12.6 11.2 10.8 89 0.9 WSW 9 17 5 9 1026.4 1026.5 0.0
22/10:30am 12.2 10.6 11.4 95 0.4 W 11 19 6 10 1026.7 1026.8 0.0
22/10:00am 12.2 11.3 11.4 95 0.4 WSW 7 11 4 6 1026.7 1026.8 0.0
22/09:30am 11.5 9.4 11.2 98 0.2 W 13 20 7 11 1026.7 1026.8 0.0
22/09:00am 11.9 9.8 11.3 96 0.3 W 13 19 7 10 1026.7 1026.8 2.8
22/08:30am 11.3 9.2 11.1 99 0.1 W 13 20 7 11 1026.6 1026.7 2.8
22/08:00am 11.2 9.5 11.2 100 0.0 W 11 17 6 9 1026.5 1026.6 2.8
22/07:30am 10.5 9.4 10.5 100 0.0 W 7 11 4 6 1026.4 1026.5 2.8
22/07:00am 10.1 9.0 10.1 100 0.0 W 6 11 3 6 1026.3 1026.4 2.8
22/06:30am 9.8 8.1 9.8 100 0.0 W 9 15 5 8 1025.9 1026.0 2.8
22/06:00am 9.5 8.1 9.5 100 0.0 W 7 11 4 6 1025.6 1025.7 2.8
22/05:30am 9.5 8.1 9.5 100 0.0 W 7 11 4 6 1025.3 1025.4 2.8
22/05:00am 9.4 8.0 9.4 100 0.0 W 7 11 4 6 1025.1 1025.2 2.6
22/04:30am 9.9 8.2 9.9 100 0.0 W 9 13 5 7 1025.1 1025.2 2.6
22/04:00am 10.0 8.0 10.0 100 0.0 W 11 17 6 9 1025.2 1025.3 2.6
22/03:30am 10.1 8.5 10.1 100 0.0 W 9 13 5 7 1025.4 1025.5 2.6
22/03:00am 10.2 8.6 10.2 100 0.0 W 9 15 5 8 1025.5 1025.6 2.6
22/02:30am 10.2 7.8 10.2 100 0.0 W 13 22 7 12 1025.5 1025.6 2.6
22/02:00am 10.3 8.3 10.3 100 0.0 W 11 17 6 9 1025.9 1026.0 2.6
22/01:30am 10.1 8.5 10.1 100 0.0 W 9 15 5 8 1026.1 1026.2 2.6
22/01:00am 10.0 8.7 10.0 100 0.0 W 7 11 4 6 1026.2 1026.3 2.4
22/12:30am 10.1 8.1 10.1 100 0.0 W 11 19 6 10 1026.4 1026.5 2.4
22/12:00am 10.0 8.3 10.0 100 0.0 W 9 19 5 10 1026.7 1026.8 2.4
 
Date/Time
EST
Temp
°C
App
Temp
°C
Dew
Point
°C
Rel
Hum
%
Delta-T
°C
Wind Press
QNH
hPa
Press
MSL
hPa
Rain since
9am
mm
Dir  Spd
km/h
Gust
km/h
Spd
kts
Gust
kts
21/11:30pm 9.7 8.9 9.7 100 0.0 NW 4 7 2 4 1026.7 1026.8 2.4
21/11:00pm 9.5 8.1 9.5 100 0.0 NNW 7 9 4 5 1026.9 1027.0 2.4
21/10:30pm 9.3 7.8 9.3 100 0.0 N 7 11 4 6 1027.1 1027.2 2.4
21/10:00pm 9.2 7.7 9.2 100 0.0 N 7 9 4 5 1027.2 1027.3 2.4
21/09:30pm 9.2 7.7 9.2 100 0.0 N 7 13 4 7 1027.2 1027.3 2.2
21/09:00pm 9.1 7.8 9.1 100 0.0 NNE 6 9 3 5 1027.4 1027.5 2.2
21/08:30pm 9.0 7.6 9.0 100 0.0 N 6 9 3 5 1027.4 1027.5 1.8
21/08:00pm 8.9 8.7 8.9 100 0.0 CALM 0 0 0 0 1027.6 1027.7 1.8
21/07:30pm 9.1 8.5 9.0 99 0.0 WSW 2 6 1 3 1027.6 1027.7 1.6
21/07:00pm 9.8 8.0 8.1 89 0.8 W 7 13 4 7 1027.5 1027.6 1.0
21/06:30pm 10.5 9.1 5.7 72 2.2 SW 2 6 1 3 1027.0 1027.1 0.8
21/06:00pm 10.8 9.2 4.7 66 2.7 SW 2 6 1 3 1026.9 1027.0 0.8
21/05:30pm 10.9 8.6 4.8 66 2.8 SW 6 9 3 5 1026.2 1026.3 0.8
21/05:00pm 11.3 8.5 5.2 66 2.8 SSW 9 17 5 9 1026.1 1026.2 0.8
21/04:30pm 11.4 7.7 4.2 61 3.2 SSW 13 22 7 12 1026.0 1026.1 0.8
21/04:00pm 11.5 7.8 4.3 61 3.2 SSW 13 24 7 13 1026.2 1026.3 0.8
21/03:30pm 11.2 6.0 3.3 58 3.5 SSW 20 32 11 17 1026.2 1026.3 0.8
21/03:00pm 11.8 7.2 3.8 58 3.6 SW 17 26 9 14 1026.1 1026.2 0.8
21/02:30pm 11.7 6.3 4.4 61 3.3 SSW 22 33 12 18 1026.1 1026.2 0.8
21/02:00pm 11.7 7.0 5.1 64 3.0 SW 19 32 10 17 1026.3 1026.4 0.8
21/01:30pm 11.2 5.8 4.7 64 3.0 SSW 22 32 12 17 1026.2 1026.3 0.8
21/01:00pm 13.2 8.6 6.5 64 3.2 SW 20 35 11 19 1026.1 1026.2 0.8
21/12:30pm 11.8 7.5 6.9 72 2.3 SSW 19 35 10 19 1026.0 1026.1 0.8
21/12:00pm 11.0 6.7 5.3 68 2.6 SW 17 33 9 18 1025.6 1025.7 0.8
21/11:30am 10.7 5.9 5.7 71 2.3 SSW 20 33 11 18 1025.3 1025.4 0.8
21/11:00am 10.5 6.3 7.4 81 1.5 SW 19 30 10 16 1025.4 1025.5 0.8
21/10:30am 8.3 4.1 8.2 99 0.0 SW 20 46 11 25 1025.5 1025.6 0.8
21/10:00am 9.3 7.4 9.2 99 0.0 WSW 9 17 5 9 1025.1 1025.2 0.4
21/09:30am 9.1 6.4 9.1 100 0.0 W 13 19 7 10 1025.2 1025.3 0.2
21/09:00am 7.7 4.7 7.6 99 0.0 SW 13 24 7 13 1025.1 1025.2 12.2
21/08:30am 6.9 3.7 6.9 100 0.0 W 13 19 7 10 1024.3 1024.4 12.0
21/08:00am 6.4 3.1 6.4 100 0.0 W 13 19 7 10 1023.8 1023.8 11.4
21/07:30am 6.2 2.9 6.2 100 0.0 W 13 20 7 11 1023.3 1023.3 11.0
21/07:00am 6.1 2.4 6.1 100 0.0 W 15 30 8 16 1023.0 1023.0 9.4
21/06:30am 5.9 1.7 5.9 100 0.0 W 17 28 9 15 1022.4 1022.4 8.6
21/06:00am 5.7 1.9 5.7 100 0.0 W 15 24 8 13 1021.8 1021.8 8.6
21/05:30am 5.5 2.0 5.5 100 0.0 W 13 24 7 13 1021.1 1021.1 8.4
21/05:00am 5.8 1.6 5.8 100 0.0 W 17 32 9 17 1020.8 1020.8 7.8
21/04:30am 5.8 1.6 5.8 100 0.0 W 17 28 9 15 1020.0 1020.0 7.0
21/04:00am 5.7 1.5 5.7 100 0.0 W 17 30 9 16 1019.7 1019.7 7.0
21/03:30am 5.4 1.5 5.4 100 0.0 W 15 24 8 13 1019.3 1019.3 6.6
21/03:00am 5.6 1.0 5.6 100 0.0 W 19 28 10 15 1019.1 1019.1 6.4
21/02:30am 5.5 1.2 5.4 99 0.0 W 17 26 9 14 1018.9 1018.9 6.0
21/02:00am 5.5 0.7 5.4 99 0.0 W 20 32 11 17 1018.6 1018.6 6.0
21/01:30am 5.6 1.4 5.5 99 0.0 W 17 28 9 15 1018.6 1018.6 5.4
21/01:00am 5.4 1.1 5.3 99 0.0 W 17 26 9 14 1018.6 1018.6 5.4
21/12:30am 5.7 0.9 4.8 94 0.4 W 19 28 10 15 1018.5 1018.5 4.4
21/12:00am 5.6 2.4 5.3 98 0.1 W 11 17 6 9 1018.2 1018.2 4.4
 
Date/Time
EST
Temp
°C
App
Temp
°C
Dew
Point
°C
Rel
Hum
%
Delta-T
°C
Wind Press
QNH
hPa
Press
MSL
hPa
Rain since
9am
mm
Dir  Spd
km/h
Gust
km/h
Spd
kts
Gust
kts
20/11:30pm 6.0 1.8 4.0 87 0.9 WSW 15 24 8 13 1018.2 1018.2 4.0
20/11:00pm 5.6 1.3 3.4 86 0.9 W 15 24 8 13 1017.5 1017.5 4.0
20/10:30pm 5.6 1.7 3.6 87 0.8 W 13 24 7 13 1017.3 1017.3 4.0
20/10:00pm 5.7 1.1 3.9 88 0.8 W 17 26 9 14 1017.3 1017.3 4.0
20/09:30pm 5.5 1.0 4.0 90 0.6 W 17 24 9 13 1016.6 1016.6 4.0
20/09:00pm 5.4 1.3 4.4 93 0.4 W 15 24 8 13 1016.5 1016.5 4.0
20/08:30pm 5.4 0.6 4.5 94 0.4 W 19 26 10 14 1016.0 1016.0 4.0
20/08:00pm 5.8 1.4 4.9 94 0.4 W 17 28 9 15 1015.7 1015.7 4.0
20/07:30pm 6.0 0.7 5.0 93 0.4 W 22 37 12 20 1015.3 1015.3 4.0
20/07:00pm 6.0 1.3 5.3 95 0.3 W 19 32 10 17 1014.9 1014.9 4.0
20/06:30pm 6.1 1.2 5.2 94 0.4 W 20 35 11 19 1014.1 1014.1 3.8
20/06:00pm 7.1 3.1 4.9 86 1.0 W 15 24 8 13 1013.7 1013.7 3.6
20/05:30pm 7.1 3.7 6.0 93 0.5 WNW 13 20 7 11 1013.2 1013.2 3.6
20/05:00pm 6.6 2.1 6.3 98 0.1 W 19 35 10 19 1012.9 1012.9 3.4
20/04:30pm 8.2 3.6 5.7 84 1.1 W 19 35 10 19 1012.5 1012.5 3.2
20/04:00pm 8.7 4.7 5.1 78 1.6 W 15 24 8 13 1012.3 1012.3 3.2
20/03:30pm 8.0 1.7 4.0 76 1.7 W 26 48 14 26 1012.1 1012.2 3.2
20/03:07pm 9.4 2.6 2.9 64 2.8 WNW 28 63 15 34 1011.8 1011.9 3.2
20/03:00pm 10.1 5.0 4.3 67 2.6 W 20 37 11 20 1011.5 1011.6 3.2
20/02:30pm 10.1 5.1 4.7 69 2.4 W 20 32 11 17 1011.4 1011.5 3.2
20/02:00pm 9.2 4.9 7.8 91 0.7 W 20 37 11 20 1011.8 1011.9 3.2
20/01:48pm 7.7 1.5 6.2 90 0.7 W 28 52 15 28 1012.1 1012.2 3.2
20/01:30pm 7.5 2.4 5.8 89 0.8 WNW 22 39 12 21 1012.1 1012.2 3.2
20/01:13pm 9.7 3.3 5.1 73 2.1 W 28 56 15 30 1011.7 1011.8 2.6
20/01:00pm 10.7 7.0 9.6 93 0.6 W 19 37 10 20 1011.8 1011.9 2.6
20/12:30pm 8.3 2.9 6.3 87 0.9 SW 24 44 13 24 1011.6 1011.7 1.6
20/12:00pm 9.9 4.3 7.2 83 1.3 WSW 26 44 14 24 1011.9 1012.0 0.6
20/11:30am 12.4 5.7 3.6 55 3.9 W 28 48 15 26 1011.8 1011.9 0.6
20/11:29am 12.3 5.5 3.3 54 4.0 W 28 48 15 26 1011.9 1012.0 0.6
20/11:18am 11.6 7.1 4.3 61 3.3 W 17 39 9 21 1011.8 1011.9 0.6
20/11:00am 9.7 7.1 9.2 97 0.2 WSW 13 32 7 17 1012.1 1012.2 0.6

Latest Capital City Observations: Canberra | Sydney | Melbourne | Brisbane | Adelaide | Perth | Hobart | Darwin

Other formats

Comma delimited format used in spreadsheet applications
http://www.bom.gov.au/fwo/IDV60901/IDV60901.95874.axf

JavaScript Object Notation format (JSON) in row-major order
http://www.bom.gov.au/fwo/IDV60901/IDV60901.95874.json

Data quality

Most of these data are generated automatically and are frequently updated. Quality checks on data are not normally performed. It is possible for incorrect values to appear. Refer to information at About Latest Weather Observations and please check the disclaimer before using these data.